createdAt,value
2016-08-31T00:00:23.678Z,0
2016-08-31T00:01:24.353Z,0
2016-08-31T00:02:23.629Z,0
2016-08-31T00:03:25.789Z,0
2016-08-31T00:04:25.749Z,0
2016-08-31T00:05:25.719Z,0
2016-08-31T00:06:25.008Z,0
2016-08-31T00:07:25.747Z,0
2016-08-31T00:08:24.950Z,0
2016-08-31T00:09:24.952Z,0
2016-08-31T00:10:23.662Z,0
2016-08-31T00:11:23.521Z,0
2016-08-31T00:12:24.913Z,0
2016-08-31T00:13:24.190Z,0
2016-08-31T00:14:24.957Z,0
2016-08-31T00:15:24.869Z,0
2016-08-31T00:16:24.868Z,0
2016-08-31T00:17:24.870Z,0
2016-08-31T00:18:25.547Z,0
2016-08-31T00:19:24.102Z,0
2016-08-31T00:20:24.099Z,0
2016-08-31T00:21:24.788Z,0
2016-08-31T00:22:23.362Z,0
2016-08-31T00:23:24.056Z,0
2016-08-31T00:24:24.749Z,0
2016-08-31T00:25:24.739Z,0
2016-08-31T00:26:25.450Z,0
2016-08-31T00:27:25.420Z,0
2016-08-31T00:28:25.400Z,0
2016-08-31T00:29:24.678Z,0
2016-08-31T00:30:25.394Z,0
2016-08-31T00:31:23.935Z,0
2016-08-31T00:32:25.362Z,0
2016-08-31T00:33:25.352Z,0
2016-08-31T00:34:25.329Z,0
2016-08-31T00:35:25.323Z,0
2016-08-31T00:36:24.672Z,0
2016-08-31T00:37:24.580Z,0
2016-08-31T00:38:25.292Z,0
2016-08-31T00:39:25.270Z,0
2016-08-31T00:40:25.452Z,0
2016-08-31T00:41:23.812Z,0
2016-08-31T00:42:25.232Z,0
2016-08-31T00:43:25.222Z,0
2016-08-31T00:44:23.769Z,0
2016-08-31T00:45:24.532Z,0
2016-08-31T00:46:24.448Z,0
2016-08-31T00:47:25.152Z,0
2016-08-31T00:48:25.138Z,0
2016-08-31T00:49:25.125Z,0
2016-08-31T00:50:22.970Z,0
2016-08-31T00:51:24.399Z,0
2016-08-31T00:52:23.715Z,0
2016-08-31T00:53:24.361Z,0
2016-08-31T00:54:23.640Z,0
2016-08-31T00:55:25.028Z,0
2016-08-31T00:56:24.333Z,0
2016-08-31T00:57:25.037Z,0
2016-08-31T00:58:25.001Z,0
2016-08-31T00:59:24.281Z,0
2016-08-31T01:00:23.621Z,0
2016-08-31T01:01:24.957Z,0
2016-08-31T01:02:24.950Z,0
2016-08-31T01:03:24.219Z,0
2016-08-31T01:04:24.974Z,0
2016-08-31T01:05:24.187Z,0
2016-08-31T01:06:24.232Z,0
2016-08-31T01:07:24.190Z,0
2016-08-31T01:08:23.442Z,0
2016-08-31T01:09:23.406Z,0
2016-08-31T01:10:24.840Z,0
2016-08-31T01:11:24.823Z,0
2016-08-31T01:12:24.881Z,0
2016-08-31T01:13:24.794Z,0
2016-08-31T01:14:24.161Z,0
2016-08-31T01:15:24.051Z,0
2016-08-31T01:16:24.758Z,0
2016-08-31T01:17:24.732Z,0
2016-08-31T01:18:24.751Z,0
2016-08-31T01:19:24.689Z,0
2016-08-31T01:20:23.270Z,0
2016-08-31T01:21:23.959Z,0
2016-08-31T01:22:24.681Z,0
2016-08-31T01:23:24.659Z,0
2016-08-31T01:24:24.628Z,0
2016-08-31T01:25:23.918Z,0
2016-08-31T01:26:23.922Z,0
2016-08-31T01:27:24.593Z,0
2016-08-31T01:28:24.589Z,0
2016-08-31T01:29:23.148Z,0
2016-08-31T01:30:23.831Z,0
2016-08-31T01:31:23.121Z,0
2016-08-31T01:32:23.833Z,0
2016-08-31T01:33:23.812Z,0
2016-08-31T01:34:24.517Z,0
2016-08-31T01:35:24.478Z,0
2016-08-31T01:36:23.757Z,0
2016-08-31T01:37:23.741Z,0
2016-08-31T01:38:24.502Z,0
2016-08-31T01:39:24.441Z,0
2016-08-31T01:40:23.931Z,0
2016-08-31T01:41:24.396Z,0
2016-08-31T01:42:24.375Z,0
2016-08-31T01:43:24.376Z,0
2016-08-31T01:44:24.429Z,0
2016-08-31T01:45:23.061Z,0
2016-08-31T01:46:23.689Z,0
2016-08-31T01:47:22.889Z,0
2016-08-31T01:48:23.593Z,0
2016-08-31T01:49:24.281Z,0
2016-08-31T01:50:24.341Z,0
2016-08-31T01:51:24.252Z,0
2016-08-31T01:52:23.541Z,0
2016-08-31T01:53:24.227Z,0
2016-08-31T01:54:23.499Z,0
2016-08-31T01:55:23.498Z,0
2016-08-31T01:56:23.507Z,0
2016-08-31T01:57:24.191Z,0
2016-08-31T01:58:23.451Z,0
2016-08-31T01:59:24.161Z,0
2016-08-31T02:00:24.280Z,0
2016-08-31T02:01:24.101Z,0
2016-08-31T02:02:22.681Z,0
2016-08-31T02:03:22.681Z,0
2016-08-31T02:04:24.125Z,0
2016-08-31T02:05:24.081Z,0
2016-08-31T02:06:24.061Z,0
2016-08-31T02:07:24.041Z,0
2016-08-31T02:08:24.017Z,0
2016-08-31T02:09:24.014Z,0
2016-08-31T02:10:23.279Z,0
2016-08-31T02:11:22.561Z,0
2016-08-31T02:12:23.970Z,0
2016-08-31T02:13:23.240Z,0
2016-08-31T02:14:23.212Z,0
2016-08-31T02:15:24.447Z,0
2016-08-31T02:16:23.192Z,0
2016-08-31T02:17:23.180Z,0
2016-08-31T02:18:23.160Z,0
2016-08-31T02:19:23.861Z,0
2016-08-31T02:20:23.839Z,0
2016-08-31T02:21:23.821Z,0
2016-08-31T02:22:23.100Z,0
2016-08-31T02:23:23.077Z,0
2016-08-31T02:24:23.084Z,0
2016-08-31T02:25:23.089Z,0
2016-08-31T02:26:23.058Z,0
2016-08-31T02:27:23.762Z,0
2016-08-31T02:28:23.728Z,0
2016-08-31T02:29:22.280Z,0
2016-08-31T02:30:23.696Z,0
2016-08-31T02:31:22.250Z,0
2016-08-31T02:32:23.678Z,0
2016-08-31T02:33:23.659Z,0
2016-08-31T02:34:23.652Z,0
2016-08-31T02:35:23.725Z,0
2016-08-31T02:36:23.611Z,0
2016-08-31T02:37:23.611Z,0
2016-08-31T02:38:22.868Z,0
2016-08-31T02:39:22.900Z,0
2016-08-31T02:40:22.849Z,0
2016-08-31T02:41:22.843Z,0
2016-08-31T02:42:23.515Z,0
2016-08-31T02:43:22.796Z,0
2016-08-31T02:44:23.489Z,0
2016-08-31T02:45:23.482Z,0
2016-08-31T02:46:23.470Z,0
2016-08-31T02:47:23.449Z,0
2016-08-31T02:48:22.030Z,0
2016-08-31T02:49:23.500Z,0
2016-08-31T02:50:22.701Z,0
2016-08-31T02:51:23.397Z,0
2016-08-31T02:52:23.371Z,0
2016-08-31T02:53:21.270Z,0
2016-08-31T02:54:23.369Z,0
2016-08-31T02:55:23.441Z,0
2016-08-31T02:56:23.319Z,0
2016-08-31T02:57:23.318Z,0
2016-08-31T02:58:23.291Z,0
2016-08-31T02:59:23.265Z,0
2016-08-31T03:00:22.640Z,0
2016-08-31T03:01:21.831Z,0
2016-08-31T03:02:23.239Z,0
2016-08-31T03:03:21.061Z,0
2016-08-31T03:04:23.198Z,0
2016-08-31T03:05:22.029Z,0
2016-08-31T03:06:22.470Z,0
2016-08-31T03:07:23.152Z,0
2016-08-31T03:08:23.151Z,0
2016-08-31T03:09:23.209Z,0
2016-08-31T03:10:22.812Z,0
2016-08-31T03:11:23.142Z,0
2016-08-31T03:12:23.075Z,0
2016-08-31T03:13:23.115Z,0
2016-08-31T03:14:23.055Z,0
2016-08-31T03:15:23.031Z,0
2016-08-31T03:16:21.615Z,0
2016-08-31T03:17:23.023Z,0
2016-08-31T03:18:23.000Z,0
2016-08-31T03:19:23.021Z,0
2016-08-31T03:20:22.239Z,0
2016-08-31T03:21:22.226Z,0
2016-08-31T03:22:22.934Z,0
2016-08-31T03:23:22.974Z,0
2016-08-31T03:24:22.911Z,0
2016-08-31T03:25:22.971Z,0
2016-08-31T03:26:22.868Z,0
2016-08-31T03:27:22.860Z,0
2016-08-31T03:28:22.825Z,0
2016-08-31T03:29:22.825Z,0
2016-08-31T03:30:22.817Z,0
2016-08-31T03:31:22.082Z,0
2016-08-31T03:32:22.796Z,0
2016-08-31T03:33:22.049Z,0
2016-08-31T03:34:22.761Z,0
2016-08-31T03:35:22.018Z,0
2016-08-31T03:36:22.721Z,0
2016-08-31T03:37:22.111Z,0
2016-08-31T03:38:22.688Z,0
2016-08-31T03:39:21.970Z,0
2016-08-31T03:40:22.656Z,0
2016-08-31T03:41:21.927Z,0
2016-08-31T03:42:22.641Z,0
2016-08-31T03:43:22.626Z,0
2016-08-31T03:44:21.883Z,0
2016-08-31T03:45:22.592Z,0
2016-08-31T03:46:21.870Z,0
2016-08-31T03:47:22.556Z,0
2016-08-31T03:48:22.551Z,0
2016-08-31T03:49:22.531Z,0
2016-08-31T03:50:22.509Z,0
2016-08-31T03:51:22.521Z,0
2016-08-31T03:52:21.775Z,0
2016-08-31T03:53:21.747Z,0
2016-08-31T03:54:22.449Z,0
2016-08-31T03:55:21.722Z,0
2016-08-31T03:56:21.697Z,0
2016-08-31T03:57:20.982Z,0
2016-08-31T03:58:22.407Z,0
2016-08-31T03:59:22.369Z,0
2016-08-31T04:00:22.393Z,0
2016-08-31T04:01:21.641Z,0
2016-08-31T04:02:21.686Z,0
2016-08-31T04:03:20.891Z,0
2016-08-31T04:04:21.591Z,0
2016-08-31T04:05:21.561Z,0
2016-08-31T04:06:22.279Z,0
2016-08-31T04:07:20.903Z,0
2016-08-31T04:08:21.520Z,0
2016-08-31T04:09:21.521Z,0
2016-08-31T04:10:22.959Z,0
2016-08-31T04:11:22.219Z,0
2016-08-31T04:12:22.161Z,0
2016-08-31T04:13:20.821Z,0
2016-08-31T04:14:21.418Z,0
2016-08-31T04:15:21.419Z,0
2016-08-31T04:16:21.402Z,0
2016-08-31T04:17:21.398Z,0
2016-08-31T04:18:22.131Z,0
2016-08-31T04:19:21.430Z,0
2016-08-31T04:20:21.355Z,0
2016-08-31T04:21:22.048Z,0
2016-08-31T04:22:22.041Z,0
2016-08-31T04:23:22.020Z,0
2016-08-31T04:24:22.061Z,0
2016-08-31T04:25:20.567Z,0
2016-08-31T04:26:21.258Z,0
2016-08-31T04:27:20.519Z,0
2016-08-31T04:28:20.566Z,0
2016-08-31T04:29:20.491Z,0
2016-08-31T04:30:20.527Z,0
2016-08-31T04:31:21.191Z,0
2016-08-31T04:32:20.451Z,0
2016-08-31T04:33:21.839Z,0
2016-08-31T04:34:20.525Z,0
2016-08-31T04:35:21.110Z,0
2016-08-31T04:36:21.111Z,0
2016-08-31T04:37:21.792Z,0
2016-08-31T04:38:21.792Z,0
2016-08-31T04:39:21.039Z,0
2016-08-31T04:40:21.081Z,0
2016-08-31T04:41:21.005Z,5
2016-08-31T04:42:21.069Z,5
2016-08-31T04:43:21.691Z,5
2016-08-31T04:44:21.009Z,5
2016-08-31T04:45:20.249Z,5
2016-08-31T04:46:21.660Z,5
2016-08-31T04:47:20.210Z,5
2016-08-31T04:48:20.938Z,5
2016-08-31T04:49:21.628Z,5
2016-08-31T04:50:20.898Z,5
2016-08-31T04:51:20.861Z,10
2016-08-31T04:52:20.852Z,10
2016-08-31T04:53:21.555Z,10
2016-08-31T04:54:21.531Z,10
2016-08-31T04:55:21.530Z,10
2016-08-31T04:56:20.061Z,10
2016-08-31T04:57:21.468Z,10
2016-08-31T04:58:20.772Z,10
2016-08-31T04:59:21.481Z,15
2016-08-31T05:00:20.886Z,15
2016-08-31T05:01:21.420Z,15
2016-08-31T05:02:20.730Z,15
2016-08-31T05:03:20.688Z,15
2016-08-31T05:04:20.729Z,15
2016-08-31T05:05:21.365Z,15
2016-08-31T05:06:20.627Z,20
2016-08-31T05:07:20.601Z,20
2016-08-31T05:08:21.321Z,20
2016-08-31T05:09:19.942Z,20
2016-08-31T05:10:19.838Z,20
2016-08-31T05:11:20.533Z,20
2016-08-31T05:12:21.312Z,20
2016-08-31T05:13:20.527Z,25
2016-08-31T05:14:21.240Z,25
2016-08-31T05:15:21.201Z,25
2016-08-31T05:16:20.470Z,25
2016-08-31T05:17:20.461Z,25
2016-08-31T05:18:21.162Z,25
2016-08-31T05:19:20.447Z,25
2016-08-31T05:20:20.460Z,30
2016-08-31T05:21:21.115Z,30
2016-08-31T05:22:21.111Z,30
2016-08-31T05:23:20.382Z,30
2016-08-31T05:24:20.362Z,30
2016-08-31T05:25:21.051Z,30
2016-08-31T05:26:21.068Z,35
2016-08-31T05:27:20.309Z,35
2016-08-31T05:28:20.421Z,35
2016-08-31T05:29:20.990Z,35
2016-08-31T05:30:20.969Z,35
2016-08-31T05:31:20.351Z,35
2016-08-31T05:32:21.038Z,35
2016-08-31T05:33:20.208Z,40
2016-08-31T05:34:20.900Z,40
2016-08-31T05:35:20.910Z,40
2016-08-31T05:36:20.908Z,40
2016-08-31T05:37:20.135Z,40
2016-08-31T05:38:20.130Z,40
2016-08-31T05:39:20.100Z,40
2016-08-31T05:40:20.891Z,45
2016-08-31T05:41:20.096Z,45
2016-08-31T05:42:19.349Z,45
2016-08-31T05:43:20.049Z,45
2016-08-31T05:44:20.791Z,45
2016-08-31T05:45:20.750Z,45
2016-08-31T05:46:20.768Z,45
2016-08-31T05:47:19.999Z,50
2016-08-31T05:48:20.687Z,50
2016-08-31T05:49:20.696Z,50
2016-08-31T05:50:19.947Z,50
2016-08-31T05:51:19.922Z,50
2016-08-31T05:52:19.917Z,50
2016-08-31T05:53:20.616Z,50
2016-08-31T05:54:19.889Z,55
2016-08-31T05:55:20.590Z,55
2016-08-31T05:56:20.609Z,55
2016-08-31T05:57:20.550Z,55
2016-08-31T05:58:20.561Z,55
2016-08-31T05:59:19.889Z,55
2016-08-31T06:00:20.511Z,55
2016-08-31T06:01:20.497Z,60
2016-08-31T06:02:19.795Z,60
2016-08-31T06:03:20.453Z,60
2016-08-31T06:04:19.724Z,60
2016-08-31T06:05:19.065Z,60
2016-08-31T06:06:19.694Z,65
2016-08-31T06:07:19.700Z,65
2016-08-31T06:08:20.430Z,65
2016-08-31T06:09:20.370Z,65
2016-08-31T06:10:20.409Z,65
2016-08-31T06:11:18.959Z,65
2016-08-31T06:12:20.334Z,65
2016-08-31T06:13:20.308Z,65
2016-08-31T06:14:20.298Z,65
2016-08-31T06:15:19.559Z,70
2016-08-31T06:16:18.118Z,70
2016-08-31T06:17:18.819Z,70
2016-08-31T06:18:18.816Z,70
2016-08-31T06:19:20.207Z,75
2016-08-31T06:20:20.226Z,75
2016-08-31T06:21:18.753Z,75
2016-08-31T06:22:20.157Z,75
2016-08-31T06:23:18.777Z,75
2016-08-31T06:24:19.420Z,75
2016-08-31T06:25:20.117Z,75
2016-08-31T06:26:20.106Z,75
2016-08-31T06:27:20.086Z,75
2016-08-31T06:28:19.370Z,75
2016-08-31T06:29:18.677Z,75
2016-08-31T06:30:20.071Z,80
2016-08-31T06:31:19.380Z,80
2016-08-31T06:32:20.024Z,80
2016-08-31T06:33:19.350Z,80
2016-08-31T06:34:19.265Z,80
2016-08-31T06:35:19.436Z,80
2016-08-31T06:36:19.975Z,85
2016-08-31T06:37:19.439Z,85
2016-08-31T06:38:19.924Z,85
2016-08-31T06:39:19.988Z,85
2016-08-31T06:40:19.175Z,85
2016-08-31T06:41:19.888Z,90
2016-08-31T06:42:19.857Z,95
2016-08-31T06:43:17.749Z,90
2016-08-31T06:44:19.834Z,90
2016-08-31T06:45:19.865Z,95
2016-08-31T06:46:18.388Z,95
2016-08-31T06:47:19.109Z,100
2016-08-31T06:48:19.776Z,100
2016-08-31T06:49:19.772Z,105
2016-08-31T06:50:18.891Z,105
2016-08-31T06:51:19.794Z,105
2016-08-31T06:52:18.999Z,110
2016-08-31T06:53:19.265Z,245
2016-08-31T06:54:18.995Z,755
2016-08-31T06:55:18.238Z,1230
2016-08-31T06:56:18.948Z,1335
2016-08-31T06:57:19.645Z,1345
2016-08-31T06:58:18.925Z,1365
2016-08-31T06:59:18.219Z,1245
2016-08-31T07:00:19.805Z,1390
2016-08-31T07:01:18.888Z,1410
2016-08-31T07:02:18.877Z,1380
2016-08-31T07:03:18.208Z,1420
2016-08-31T07:04:19.584Z,1480
2016-08-31T07:05:19.668Z,1510
2016-08-31T07:06:18.137Z,1465
2016-08-31T07:07:19.554Z,1420
2016-08-31T07:08:18.842Z,1415
2016-08-31T07:09:19.558Z,1445
2016-08-31T07:10:18.818Z,1400
2016-08-31T07:11:19.526Z,695
2016-08-31T07:12:18.815Z,165
2016-08-31T07:13:18.857Z,150
2016-08-31T07:14:18.797Z,150
2016-08-31T07:15:19.513Z,145
2016-08-31T07:16:18.845Z,145
2016-08-31T07:17:19.474Z,140
2016-08-31T07:18:18.859Z,145
2016-08-31T07:19:18.049Z,145
2016-08-31T07:20:18.217Z,145
2016-08-31T07:21:18.748Z,145
2016-08-31T07:22:18.737Z,150
2016-08-31T07:23:18.765Z,150
2016-08-31T07:24:18.017Z,145
2016-08-31T07:25:18.967Z,145
2016-08-31T07:26:18.809Z,150
2016-08-31T07:27:18.714Z,150
2016-08-31T07:28:18.006Z,155
2016-08-31T07:29:19.414Z,155
2016-08-31T07:30:17.250Z,155
2016-08-31T07:31:19.385Z,160
2016-08-31T07:32:19.414Z,160
2016-08-31T07:33:19.399Z,160
2016-08-31T07:34:18.671Z,165
2016-08-31T07:35:20.068Z,175
2016-08-31T07:36:18.669Z,360
2016-08-31T07:37:17.925Z,1090
2016-08-31T07:38:18.743Z,1585
2016-08-31T07:39:18.626Z,1565
2016-08-31T07:40:19.370Z,1575
2016-08-31T07:41:19.353Z,1605
2016-08-31T07:42:17.913Z,1625
2016-08-31T07:43:19.328Z,1555
2016-08-31T07:44:19.329Z,1515
2016-08-31T07:45:19.370Z,1530
2016-08-31T07:46:19.335Z,1560
2016-08-31T07:47:17.894Z,1590
2016-08-31T07:48:18.659Z,1655
2016-08-31T07:49:19.307Z,1715
2016-08-31T07:50:17.155Z,1655
2016-08-31T07:51:17.909Z,1525
2016-08-31T07:52:19.325Z,1510
2016-08-31T07:53:17.898Z,1645
2016-08-31T07:54:18.593Z,1800
2016-08-31T07:55:18.585Z,1745
2016-08-31T07:56:18.590Z,1580
2016-08-31T07:57:19.295Z,1550
2016-08-31T07:58:19.300Z,1645
2016-08-31T07:59:18.593Z,1705
2016-08-31T08:00:18.589Z,1655
2016-08-31T08:01:18.642Z,1575
2016-08-31T08:02:17.358Z,1590
2016-08-31T08:03:16.436Z,1645
2016-08-31T08:04:16.539Z,1650
2016-08-31T08:05:19.387Z,1625
2016-08-31T08:06:16.538Z,1620
2016-08-31T08:07:21.578Z,1665
2016-08-31T08:08:17.191Z,1705
2016-08-31T08:09:19.370Z,1665
2016-08-31T08:10:18.607Z,1530
2016-08-31T08:11:17.961Z,1485
2016-08-31T08:12:18.604Z,1635
2016-08-31T08:13:17.887Z,1770
2016-08-31T08:14:18.603Z,1715
2016-08-31T08:15:18.598Z,1635
2016-08-31T08:16:18.597Z,1605
2016-08-31T08:17:18.589Z,1585
2016-08-31T08:18:17.900Z,1605
2016-08-31T08:19:18.610Z,1650
2016-08-31T08:20:18.660Z,1650
2016-08-31T08:21:18.601Z,1660
2016-08-31T08:22:16.460Z,1670
2016-08-31T08:23:17.190Z,1660
2016-08-31T08:24:18.675Z,1635
2016-08-31T08:25:17.892Z,1590
2016-08-31T08:26:18.697Z,1640
2016-08-31T08:27:18.638Z,1745
2016-08-31T08:28:18.637Z,1740
2016-08-31T08:29:17.909Z,1640
2016-08-31T08:30:19.368Z,1615
2016-08-31T08:31:18.625Z,1670
2016-08-31T08:32:17.919Z,1715
2016-08-31T08:33:18.620Z,1745
2016-08-31T08:34:19.376Z,1755
2016-08-31T08:35:19.528Z,1710
2016-08-31T08:36:19.369Z,1610
2016-08-31T08:37:17.914Z,1495
2016-08-31T08:38:18.646Z,1470
2016-08-31T08:39:19.398Z,1580
2016-08-31T08:40:19.350Z,1685
2016-08-31T08:41:17.942Z,1665
2016-08-31T08:42:18.650Z,1625
2016-08-31T08:43:19.370Z,1605
2016-08-31T08:44:18.659Z,1620
2016-08-31T08:45:18.159Z,1675
2016-08-31T08:46:19.390Z,1655
2016-08-31T08:47:18.680Z,1550
2016-08-31T08:48:18.040Z,1495
2016-08-31T08:49:18.010Z,1650
2016-08-31T08:50:18.689Z,1755
2016-08-31T08:51:18.771Z,1650
2016-08-31T08:52:19.388Z,1590
2016-08-31T08:53:19.405Z,1550
2016-08-31T08:54:17.240Z,1435
2016-08-31T08:55:19.385Z,1470
2016-08-31T08:56:18.689Z,1610
2016-08-31T08:57:18.681Z,1595
2016-08-31T08:58:18.690Z,1545
2016-08-31T08:59:17.960Z,1595
2016-08-31T09:00:20.786Z,1620
2016-08-31T09:01:17.981Z,1565
2016-08-31T09:02:19.418Z,1580
2016-08-31T09:03:18.704Z,1615
2016-08-31T09:04:18.033Z,1630
2016-08-31T09:05:19.415Z,1580
2016-08-31T09:06:18.689Z,1560
2016-08-31T09:07:18.727Z,1560
2016-08-31T09:08:19.413Z,1620
2016-08-31T09:09:18.696Z,1625
2016-08-31T09:10:18.832Z,1520
2016-08-31T09:11:16.573Z,1560
2016-08-31T09:12:19.497Z,1625
2016-08-31T09:13:18.716Z,1595
2016-08-31T09:14:19.564Z,1535
2016-08-31T09:15:19.441Z,1595
2016-08-31T09:16:19.522Z,1570
2016-08-31T09:17:18.735Z,1475
2016-08-31T09:18:19.508Z,1485
2016-08-31T09:19:17.286Z,1475
2016-08-31T09:20:18.024Z,1360
2016-08-31T09:21:17.300Z,1475
2016-08-31T09:22:18.786Z,1770
2016-08-31T09:23:18.067Z,1535
2016-08-31T09:24:18.761Z,1405
2016-08-31T09:25:17.331Z,1480
2016-08-31T09:26:18.760Z,1395
2016-08-31T09:27:19.470Z,1475
2016-08-31T09:28:19.488Z,1430
2016-08-31T09:29:18.050Z,1370
2016-08-31T09:30:19.483Z,1375
2016-08-31T09:31:18.103Z,1460
2016-08-31T09:32:18.790Z,1370
2016-08-31T09:33:18.049Z,1245
2016-08-31T09:34:18.789Z,1445
2016-08-31T09:35:19.507Z,1430
2016-08-31T09:36:18.798Z,1295
2016-08-31T09:37:18.791Z,1375
2016-08-31T09:38:19.519Z,1445
2016-08-31T09:39:18.073Z,1345
2016-08-31T09:40:18.808Z,1295
2016-08-31T09:41:18.810Z,1380
2016-08-31T09:42:19.515Z,1395
2016-08-31T09:43:18.835Z,1360
2016-08-31T09:44:18.797Z,1340
2016-08-31T09:45:18.798Z,1320
2016-08-31T09:46:19.517Z,1320
2016-08-31T09:47:18.080Z,1315
2016-08-31T09:48:18.085Z,1325
2016-08-31T09:49:19.605Z,1285
2016-08-31T09:50:18.857Z,1245
2016-08-31T09:51:17.402Z,1245
2016-08-31T09:52:18.812Z,1315
2016-08-31T09:53:18.116Z,1300
2016-08-31T09:54:18.098Z,1280
2016-08-31T09:55:18.138Z,1230
2016-08-31T09:56:19.546Z,1185
2016-08-31T09:57:18.829Z,1220
2016-08-31T09:58:17.409Z,1200
2016-08-31T09:59:18.839Z,1150
2016-08-31T10:00:18.990Z,1190
2016-08-31T10:01:18.839Z,1190
2016-08-31T10:02:18.845Z,1235
2016-08-31T10:03:17.409Z,1040
2016-08-31T10:04:17.410Z,1090
2016-08-31T10:05:19.566Z,1080
2016-08-31T10:06:18.851Z,1065
2016-08-31T10:07:18.200Z,1080
2016-08-31T10:08:18.840Z,1070
2016-08-31T10:09:18.156Z,1065
2016-08-31T10:10:18.122Z,1005
2016-08-31T10:11:18.126Z,1020
2016-08-31T10:12:18.829Z,1020
2016-08-31T10:13:18.959Z,895
2016-08-31T10:14:18.140Z,515
2016-08-31T10:15:19.573Z,330
2016-08-31T10:16:18.836Z,320
2016-08-31T10:17:18.118Z,315
2016-08-31T10:18:18.120Z,315
2016-08-31T10:19:18.849Z,315
2016-08-31T10:20:18.839Z,315
2016-08-31T10:21:18.839Z,310
2016-08-31T10:22:18.836Z,315
2016-08-31T10:23:19.559Z,315
2016-08-31T10:24:18.109Z,315
2016-08-31T10:25:18.306Z,315
2016-08-31T10:26:18.110Z,315
2016-08-31T10:27:19.567Z,315
2016-08-31T10:28:18.108Z,315
2016-08-31T10:29:19.530Z,315
2016-08-31T10:30:18.785Z,315
2016-08-31T10:31:19.505Z,315
2016-08-31T10:32:18.827Z,320
2016-08-31T10:33:18.895Z,315
2016-08-31T10:34:18.809Z,315
2016-08-31T10:35:18.158Z,315
2016-08-31T10:36:18.136Z,315
2016-08-31T10:37:18.090Z,320
2016-08-31T10:38:19.487Z,325
2016-08-31T10:39:19.492Z,320
2016-08-31T10:40:18.097Z,320
2016-08-31T10:41:18.886Z,315
2016-08-31T10:42:18.115Z,315
2016-08-31T10:43:19.492Z,315
2016-08-31T10:44:19.485Z,320
2016-08-31T10:45:17.569Z,315
2016-08-31T10:46:18.776Z,315
2016-08-31T10:47:18.789Z,315
2016-08-31T10:48:18.767Z,315
2016-08-31T10:49:18.050Z,315
2016-08-31T10:50:18.306Z,310
2016-08-31T10:51:18.827Z,310
2016-08-31T10:52:18.828Z,315
2016-08-31T10:53:18.744Z,315
2016-08-31T10:54:18.769Z,315
2016-08-31T10:55:18.798Z,310
2016-08-31T10:56:19.537Z,310
2016-08-31T10:57:18.756Z,310
2016-08-31T10:58:18.738Z,310
2016-08-31T10:59:18.718Z,310
2016-08-31T11:00:17.999Z,305
2016-08-31T11:01:19.432Z,305
2016-08-31T11:02:19.436Z,305
2016-08-31T11:03:18.712Z,305
2016-08-31T11:04:18.000Z,305
2016-08-31T11:05:19.409Z,305
2016-08-31T11:06:19.487Z,305
2016-08-31T11:07:17.972Z,310
2016-08-31T11:08:19.394Z,305
2016-08-31T11:09:18.672Z,305
2016-08-31T11:10:19.414Z,305
2016-08-31T11:11:19.378Z,300
2016-08-31T11:12:19.426Z,305
2016-08-31T11:13:18.670Z,305
2016-08-31T11:14:19.377Z,300
2016-08-31T11:15:18.862Z,305
2016-08-31T11:16:17.300Z,300
2016-08-31T11:17:19.379Z,300
2016-08-31T11:18:19.369Z,300
2016-08-31T11:19:19.373Z,300
2016-08-31T11:20:20.026Z,300
2016-08-31T11:21:17.921Z,295
2016-08-31T11:22:17.910Z,295
2016-08-31T11:23:17.908Z,295
2016-08-31T11:24:19.350Z,295
2016-08-31T11:25:20.178Z,295
2016-08-31T11:26:18.624Z,295
2016-08-31T11:27:19.424Z,295
2016-08-31T11:28:19.320Z,295
2016-08-31T11:29:19.325Z,295
2016-08-31T11:30:17.900Z,295
2016-08-31T11:31:18.608Z,295
2016-08-31T11:32:19.320Z,295
2016-08-31T11:33:19.338Z,295
2016-08-31T11:34:18.574Z,295
2016-08-31T11:35:17.167Z,295
2016-08-31T11:36:18.569Z,295
2016-08-31T11:37:18.596Z,295
2016-08-31T11:38:18.587Z,295
2016-08-31T11:39:18.579Z,295
2016-08-31T11:40:18.581Z,300
2016-08-31T11:41:18.567Z,295
2016-08-31T11:42:19.280Z,295
2016-08-31T11:43:19.334Z,290
2016-08-31T11:44:18.578Z,290
2016-08-31T11:45:18.555Z,290
2016-08-31T11:46:18.539Z,290
2016-08-31T11:47:18.557Z,290
2016-08-31T11:48:18.587Z,290
2016-08-31T11:49:18.549Z,290
2016-08-31T11:50:18.651Z,290
2016-08-31T11:51:17.921Z,290
2016-08-31T11:52:17.809Z,290
2016-08-31T11:53:19.230Z,290
2016-08-31T11:54:18.517Z,285
2016-08-31T11:55:19.397Z,285
2016-08-31T11:56:19.348Z,285
2016-08-31T11:57:17.797Z,285
2016-08-31T11:58:19.313Z,285
2016-08-31T11:59:18.517Z,280
2016-08-31T12:00:18.508Z,280
2016-08-31T12:01:17.782Z,285
2016-08-31T12:02:18.551Z,285
2016-08-31T12:03:17.085Z,285
2016-08-31T12:04:17.070Z,285
2016-08-31T12:05:18.558Z,280
2016-08-31T12:06:18.520Z,280
2016-08-31T12:07:16.340Z,280
2016-08-31T12:08:17.780Z,285
2016-08-31T12:09:17.761Z,280
2016-08-31T12:10:18.703Z,280
2016-08-31T12:11:19.192Z,280
2016-08-31T12:12:19.166Z,280
2016-08-31T12:13:18.456Z,280
2016-08-31T12:14:19.178Z,280
2016-08-31T12:15:17.666Z,280
2016-08-31T12:16:17.009Z,285
2016-08-31T12:17:19.269Z,280
2016-08-31T12:18:17.744Z,280
2016-08-31T12:19:17.713Z,280
2016-08-31T12:20:18.438Z,275
2016-08-31T12:21:17.698Z,275
2016-08-31T12:22:18.420Z,275
2016-08-31T12:23:19.145Z,275
2016-08-31T12:24:18.410Z,270
2016-08-31T12:25:19.181Z,275
2016-08-31T12:26:17.697Z,270
2016-08-31T12:27:17.695Z,270
2016-08-31T12:28:17.677Z,270
2016-08-31T12:29:18.505Z,270
2016-08-31T12:30:17.687Z,270
2016-08-31T12:31:18.419Z,275
2016-08-31T12:32:18.391Z,275
2016-08-31T12:33:19.109Z,275
2016-08-31T12:34:18.376Z,270
2016-08-31T12:35:20.377Z,270
2016-08-31T12:36:17.652Z,270
2016-08-31T12:37:17.658Z,270
2016-08-31T12:38:18.581Z,270
2016-08-31T12:39:18.402Z,270
2016-08-31T12:40:17.721Z,275
2016-08-31T12:41:17.634Z,270
2016-08-31T12:42:19.057Z,270
2016-08-31T12:43:17.616Z,270
2016-08-31T12:44:16.897Z,270
2016-08-31T12:45:23.159Z,270
2016-08-31T12:46:18.318Z,270
2016-08-31T12:47:17.602Z,270
2016-08-31T12:48:18.310Z,265
2016-08-31T12:49:18.328Z,270
2016-08-31T12:50:17.649Z,270
2016-08-31T12:51:18.300Z,265
2016-08-31T12:52:19.023Z,265
2016-08-31T12:53:17.588Z,265
2016-08-31T12:54:16.915Z,265
2016-08-31T12:55:56.905Z,270
2016-08-31T12:56:38.277Z,265
2016-08-31T12:57:18.834Z,265
2016-08-31T12:58:16.890Z,265
2016-08-31T12:59:18.326Z,265
2016-08-31T13:00:19.021Z,265
2016-08-31T13:01:18.282Z,265
2016-08-31T13:02:18.258Z,260
2016-08-31T13:03:18.994Z,260
2016-08-31T13:04:18.341Z,255
2016-08-31T13:05:18.260Z,255
2016-08-31T13:06:18.979Z,255
2016-08-31T13:07:18.959Z,260
2016-08-31T13:08:18.234Z,260
2016-08-31T13:09:18.320Z,260
2016-08-31T13:10:18.231Z,255
2016-08-31T13:11:17.500Z,255
2016-08-31T13:12:16.793Z,255
2016-08-31T13:13:18.288Z,255
2016-08-31T13:14:18.963Z,255
2016-08-31T13:15:18.688Z,255
2016-08-31T13:16:17.500Z,250
2016-08-31T13:17:18.218Z,255
2016-08-31T13:18:18.216Z,255
2016-08-31T13:19:18.210Z,250
2016-08-31T13:20:20.530Z,250
2016-08-31T13:21:18.312Z,250
2016-08-31T13:22:18.197Z,250
2016-08-31T13:23:17.463Z,250
2016-08-31T13:24:19.055Z,250
2016-08-31T13:25:18.525Z,255
2016-08-31T13:26:17.520Z,250
2016-08-31T13:27:17.454Z,250
2016-08-31T13:28:18.876Z,250
2016-08-31T13:29:16.725Z,245
2016-08-31T13:30:18.179Z,245
2016-08-31T13:31:17.440Z,240
2016-08-31T13:32:17.532Z,245
2016-08-31T13:33:18.153Z,245
2016-08-31T13:34:18.139Z,240
2016-08-31T13:35:18.930Z,240
2016-08-31T13:36:19.122Z,240
2016-08-31T13:37:16.696Z,245
2016-08-31T13:38:18.140Z,245
2016-08-31T13:39:18.150Z,245
2016-08-31T13:40:18.219Z,245
2016-08-31T13:41:17.395Z,245
2016-08-31T13:42:16.684Z,245
2016-08-31T13:43:18.096Z,240
2016-08-31T13:44:18.101Z,250
2016-08-31T13:45:17.352Z,130
2016-08-31T13:46:18.810Z,115
2016-08-31T13:47:18.867Z,120
2016-08-31T13:48:17.436Z,230
2016-08-31T13:49:18.079Z,240
2016-08-31T13:50:18.266Z,250
2016-08-31T13:51:18.070Z,250
2016-08-31T13:52:16.643Z,250
2016-08-31T13:53:17.363Z,250
2016-08-31T13:54:17.344Z,245
2016-08-31T13:55:18.396Z,225
2016-08-31T13:56:18.071Z,225
2016-08-31T13:57:18.048Z,205
2016-08-31T13:58:18.050Z,215
2016-08-31T13:59:18.756Z,230
2016-08-31T14:00:18.051Z,230
2016-08-31T14:01:16.667Z,230
2016-08-31T14:02:18.040Z,235
2016-08-31T14:03:17.318Z,235
2016-08-31T14:04:18.848Z,225